sensor_id;sensor_type;location;lat;lon;timestamp;temperature;humidity
5792;DHT22;2922;53.482;10.006;2022-12-05T00:01:28;4.30;99.90
5792;DHT22;2922;53.482;10.006;2022-12-05T00:03:56;4.30;99.90
5792;DHT22;2922;53.482;10.006;2022-12-05T00:06:24;4.30;99.90
5792;DHT22;2922;53.482;10.006;2022-12-05T00:08:49;4.30;99.90
5792;DHT22;2922;53.482;10.006;2022-12-05T00:11:18;4.30;99.90
5792;DHT22;2922;53.482;10.006;2022-12-05T00:13:45;4.30;99.90
5792;DHT22;2922;53.482;10.006;2022-12-05T00:16:14;4.30;99.90
5792;DHT22;2922;53.482;10.006;2022-12-05T00:18:40;4.30;99.90
5792;DHT22;2922;53.482;10.006;2022-12-05T00:21:08;4.30;99.90
5792;DHT22;2922;53.482;10.006;2022-12-05T00:23:36;4.30;99.90
5792;DHT22;2922;53.482;10.006;2022-12-05T00:26:03;4.30;99.90
5792;DHT22;2922;53.482;10.006;2022-12-05T00:28:30;4.30;99.90
5792;DHT22;2922;53.482;10.006;2022-12-05T00:30:56;4.30;99.90
5792;DHT22;2922;53.482;10.006;2022-12-05T00:33:22;4.30;99.90
5792;DHT22;2922;53.482;10.006;2022-12-05T00:35:47;4.30;99.90
5792;DHT22;2922;53.482;10.006;2022-12-05T00:38:13;4.30;99.90
5792;DHT22;2922;53.482;10.006;2022-12-05T00:40:38;4.30;99.90
5792;DHT22;2922;53.482;10.006;2022-12-05T00:43:04;4.40;99.90
5792;DHT22;2922;53.482;10.006;2022-12-05T00:45:29;4.40;99.90
5792;DHT22;2922;53.482;10.006;2022-12-05T00:47:55;4.40;99.90
5792;DHT22;2922;53.482;10.006;2022-12-05T00:50:20;4.40;99.90
5792;DHT22;2922;53.482;10.006;2022-12-05T00:52:46;4.40;99.90
5792;DHT22;2922;53.482;10.006;2022-12-05T00:55:11;4.40;99.90
5792;DHT22;2922;53.482;10.006;2022-12-05T00:57:37;4.40;99.90
5792;DHT22;2922;53.482;10.006;2022-12-05T01:00:03;4.40;99.90
5792;DHT22;2922;53.482;10.006;2022-12-05T01:02:29;4.40;99.90
5792;DHT22;2922;53.482;10.006;2022-12-05T01:04:55;4.30;99.90
5792;DHT22;2922;53.482;10.006;2022-12-05T01:07:20;4.30;99.90
5792;DHT22;2922;53.482;10.006;2022-12-05T01:09:46;4.40;99.90
5792;DHT22;2922;53.482;10.006;2022-12-05T01:12:11;4.40;99.90
5792;DHT22;2922;53.482;10.006;2022-12-05T01:14:37;4.40;99.90
5792;DHT22;2922;53.482;10.006;2022-12-05T01:17:03;4.40;99.90
5792;DHT22;2922;53.482;10.006;2022-12-05T01:19:31;4.40;99.90
5792;DHT22;2922;53.482;10.006;2022-12-05T01:21:57;4.40;99.90
5792;DHT22;2922;53.482;10.006;2022-12-05T01:24:24;4.40;99.90
5792;DHT22;2922;53.482;10.006;2022-12-05T01:26:50;4.40;99.90
5792;DHT22;2922;53.482;10.006;2022-12-05T01:29:18;4.40;99.90
5792;DHT22;2922;53.482;10.006;2022-12-05T01:31:44;4.40;99.90
5792;DHT22;2922;53.482;10.006;2022-12-05T01:34:13;4.40;99.90
5792;DHT22;2922;53.482;10.006;2022-12-05T01:36:39;4.40;99.90
5792;DHT22;2922;53.482;10.006;2022-12-05T01:39:06;4.40;99.90
5792;DHT22;2922;53.482;10.006;2022-12-05T01:41:34;4.40;99.90
5792;DHT22;2922;53.482;10.006;2022-12-05T01:46:52;4.40;99.90
5792;DHT22;2922;53.482;10.006;2022-12-05T01:49:30;4.40;99.90
5792;DHT22;2922;53.482;10.006;2022-12-05T01:52:01;4.40;99.90
5792;DHT22;2922;53.482;10.006;2022-12-05T01:54:28;4.40;99.90
5792;DHT22;2922;53.482;10.006;2022-12-05T01:57:00;4.40;99.90
5792;DHT22;2922;53.482;10.006;2022-12-05T01:59:29;4.40;99.90
5792;DHT22;2922;53.482;10.006;2022-12-05T02:01:56;4.50;99.90
5792;DHT22;2922;53.482;10.006;2022-12-05T02:04:22;4.50;99.90
5792;DHT22;2922;53.482;10.006;2022-12-05T02:06:47;4.40;99.90
5792;DHT22;2922;53.482;10.006;2022-12-05T02:09:13;4.40;99.90
5792;DHT22;2922;53.482;10.006;2022-12-05T02:11:49;4.50;99.90
5792;DHT22;2922;53.482;10.006;2022-12-05T02:14:23;4.50;99.90
5792;DHT22;2922;53.482;10.006;2022-12-05T02:19:54;4.50;99.90
5792;DHT22;2922;53.482;10.006;2022-12-05T02:22:47;4.50;99.90
5792;DHT22;2922;53.482;10.006;2022-12-05T02:31:05;4.50;99.90
5792;DHT22;2922;53.482;10.006;2022-12-05T02:33:45;4.50;99.90
5792;DHT22;2922;53.482;10.006;2022-12-05T02:38:59;4.50;99.90
5792;DHT22;2922;53.482;10.006;2022-12-05T02:41:44;4.50;99.90
5792;DHT22;2922;53.482;10.006;2022-12-05T02:44:24;4.50;99.90
5792;DHT22;2922;53.482;10.006;2022-12-05T02:46:54;4.50;99.90
5792;DHT22;2922;53.482;10.006;2022-12-05T02:49:27;4.50;99.90
5792;DHT22;2922;53.482;10.006;2022-12-05T02:51:57;4.50;99.90
5792;DHT22;2922;53.482;10.006;2022-12-05T02:54:28;4.50;99.90
5792;DHT22;2922;53.482;10.006;2022-12-05T02:56:57;4.50;99.90
5792;DHT22;2922;53.482;10.006;2022-12-05T02:59:23;4.50;99.90
5792;DHT22;2922;53.482;10.006;2022-12-05T03:01:49;4.50;99.90
5792;DHT22;2922;53.482;10.006;2022-12-05T03:04:16;4.60;99.90
5792;DHT22;2922;53.482;10.006;2022-12-05T03:06:50;4.60;99.90
5792;DHT22;2922;53.482;10.006;2022-12-05T03:09:21;4.60;99.90
5792;DHT22;2922;53.482;10.006;2022-12-05T03:12:00;4.60;99.90
5792;DHT22;2922;53.482;10.006;2022-12-05T03:14:34;4.60;99.90
5792;DHT22;2922;53.482;10.006;2022-12-05T03:17:09;4.60;99.90
5792;DHT22;2922;53.482;10.006;2022-12-05T03:20:26;4.60;99.90
5792;DHT22;2922;53.482;10.006;2022-12-05T03:22:35;4.60;99.90
5792;DHT22;2922;53.482;10.006;2022-12-05T03:25:03;4.60;99.90
5792;DHT22;2922;53.482;10.006;2022-12-05T03:27:37;4.60;99.90
5792;DHT22;2922;53.482;10.006;2022-12-05T03:30:07;4.60;99.90
5792;DHT22;2922;53.482;10.006;2022-12-05T03:35:22;4.60;99.90
5792;DHT22;2922;53.482;10.006;2022-12-05T03:38:08;4.60;99.90
5792;DHT22;2922;53.482;10.006;2022-12-05T03:46:50;4.60;99.90
5792;DHT22;2922;53.482;10.006;2022-12-05T03:50:14;4.60;99.90
5792;DHT22;2922;53.482;10.006;2022-12-05T03:52:28;4.60;99.90
5792;DHT22;2922;53.482;10.006;2022-12-05T03:54:58;4.60;99.90
5792;DHT22;2922;53.482;10.006;2022-12-05T04:00:17;4.60;99.90
5792;DHT22;2922;53.482;10.006;2022-12-05T04:05:27;4.60;99.90
5792;DHT22;2922;53.482;10.006;2022-12-05T04:08:03;4.60;99.90
5792;DHT22;2922;53.482;10.006;2022-12-05T04:10:33;4.60;99.90
5792;DHT22;2922;53.482;10.006;2022-12-05T04:13:17;4.60;99.90
5792;DHT22;2922;53.482;10.006;2022-12-05T04:15:55;4.60;99.90
5792;DHT22;2922;53.482;10.006;2022-12-05T04:18:46;4.60;99.90
5792;DHT22;2922;53.482;10.006;2022-12-05T04:21:16;4.60;99.90
5792;DHT22;2922;53.482;10.006;2022-12-05T04:24:01;4.60;99.90
5792;DHT22;2922;53.482;10.006;2022-12-05T04:26:50;4.60;99.90
5792;DHT22;2922;53.482;10.006;2022-12-05T04:29:28;4.60;99.90
5792;DHT22;2922;53.482;10.006;2022-12-05T04:31:59;4.60;99.90
5792;DHT22;2922;53.482;10.006;2022-12-05T04:34:30;4.60;99.90
5792;DHT22;2922;53.482;10.006;2022-12-05T04:37:04;4.60;99.90
5792;DHT22;2922;53.482;10.006;2022-12-05T04:39:52;4.60;99.90
5792;DHT22;2922;53.482;10.006;2022-12-05T04:42:21;4.60;99.90
5792;DHT22;2922;53.482;10.006;2022-12-05T04:44:52;4.60;99.90
5792;DHT22;2922;53.482;10.006;2022-12-05T04:47:22;4.60;99.90
5792;DHT22;2922;53.482;10.006;2022-12-05T04:49:50;4.60;99.90
5792;DHT22;2922;53.482;10.006;2022-12-05T04:52:17;4.60;99.90
5792;DHT22;2922;53.482;10.006;2022-12-05T04:55:04;4.60;99.90
5792;DHT22;2922;53.482;10.006;2022-12-05T04:57:50;4.60;99.90
5792;DHT22;2922;53.482;10.006;2022-12-05T05:00:17;4.50;99.90
5792;DHT22;2922;53.482;10.006;2022-12-05T05:02:53;4.60;99.90
5792;DHT22;2922;53.482;10.006;2022-12-05T05:05:21;4.60;99.90
5792;DHT22;2922;53.482;10.006;2022-12-05T05:07:50;4.60;99.90
5792;DHT22;2922;53.482;10.006;2022-12-05T05:10:20;4.50;99.90
5792;DHT22;2922;53.482;10.006;2022-12-05T05:12:47;4.60;99.90
5792;DHT22;2922;53.482;10.006;2022-12-05T05:15:13;4.50;99.90
5792;DHT22;2922;53.482;10.006;2022-12-05T05:17:38;4.50;99.90
5792;DHT22;2922;53.482;10.006;2022-12-05T05:20:04;4.60;99.90
5792;DHT22;2922;53.482;10.006;2022-12-05T05:22:58;4.60;99.90
5792;DHT22;2922;53.482;10.006;2022-12-05T05:25:24;4.60;99.90
5792;DHT22;2922;53.482;10.006;2022-12-05T05:27:51;4.60;99.90
5792;DHT22;2922;53.482;10.006;2022-12-05T05:30:18;4.60;99.90
5792;DHT22;2922;53.482;10.006;2022-12-05T05:32:45;4.60;99.90
5792;DHT22;2922;53.482;10.006;2022-12-05T05:35:11;4.50;99.90
5792;DHT22;2922;53.482;10.006;2022-12-05T05:37:38;4.60;99.90
5792;DHT22;2922;53.482;10.006;2022-12-05T05:40:06;4.50;99.90
5792;DHT22;2922;53.482;10.006;2022-12-05T05:42:32;4.50;99.90
5792;DHT22;2922;53.482;10.006;2022-12-05T05:44:57;4.50;99.90
5792;DHT22;2922;53.482;10.006;2022-12-05T05:47:23;4.50;99.90
5792;DHT22;2922;53.482;10.006;2022-12-05T05:49:48;4.50;99.90
5792;DHT22;2922;53.482;10.006;2022-12-05T05:52:14;4.50;99.90
5792;DHT22;2922;53.482;10.006;2022-12-05T05:54:40;4.50;99.90
5792;DHT22;2922;53.482;10.006;2022-12-05T05:57:06;4.50;99.90
5792;DHT22;2922;53.482;10.006;2022-12-05T05:59:31;4.50;99.90
5792;DHT22;2922;53.482;10.006;2022-12-05T06:01:57;4.50;99.90
5792;DHT22;2922;53.482;10.006;2022-12-05T06:04:22;4.50;99.90
5792;DHT22;2922;53.482;10.006;2022-12-05T06:06:48;4.50;99.90
5792;DHT22;2922;53.482;10.006;2022-12-05T06:09:13;4.50;99.90
5792;DHT22;2922;53.482;10.006;2022-12-05T06:11:39;4.50;99.90
5792;DHT22;2922;53.482;10.006;2022-12-05T06:14:05;4.50;99.90
5792;DHT22;2922;53.482;10.006;2022-12-05T06:16:30;4.50;99.90
5792;DHT22;2922;53.482;10.006;2022-12-05T06:18:56;4.50;99.90
5792;DHT22;2922;53.482;10.006;2022-12-05T06:21:23;4.50;99.90
5792;DHT22;2922;53.482;10.006;2022-12-05T06:23:48;4.50;99.90
5792;DHT22;2922;53.482;10.006;2022-12-05T06:26:17;4.40;99.90
5792;DHT22;2922;53.482;10.006;2022-12-05T06:28:43;4.40;99.90
5792;DHT22;2922;53.482;10.006;2022-12-05T06:31:12;4.40;99.90
5792;DHT22;2922;53.482;10.006;2022-12-05T06:33:38;4.40;99.90
5792;DHT22;2922;53.482;10.006;2022-12-05T06:36:12;4.40;99.90
5792;DHT22;2922;53.482;10.006;2022-12-05T06:38:38;4.40;99.90
5792;DHT22;2922;53.482;10.006;2022-12-05T06:41:07;4.40;99.90
5792;DHT22;2922;53.482;10.006;2022-12-05T06:43:33;4.30;99.90
5792;DHT22;2922;53.482;10.006;2022-12-05T06:46:03;4.30;99.90
5792;DHT22;2922;53.482;10.006;2022-12-05T06:48:28;4.30;99.90
5792;DHT22;2922;53.482;10.006;2022-12-05T06:50:54;4.30;99.90
5792;DHT22;2922;53.482;10.006;2022-12-05T06:53:20;4.30;99.90
5792;DHT22;2922;53.482;10.006;2022-12-05T06:58:21;4.30;99.90
5792;DHT22;2922;53.482;10.006;2022-12-05T07:00:47;4.30;99.90
5792;DHT22;2922;53.482;10.006;2022-12-05T07:03:47;4.30;99.90
5792;DHT22;2922;53.482;10.006;2022-12-05T07:06:13;4.30;99.90
5792;DHT22;2922;53.482;10.006;2022-12-05T07:08:39;4.30;99.90
5792;DHT22;2922;53.482;10.006;2022-12-05T07:11:06;4.30;99.90
5792;DHT22;2922;53.482;10.006;2022-12-05T07:13:32;4.30;99.90
5792;DHT22;2922;53.482;10.006;2022-12-05T07:15:58;4.30;99.90
5792;DHT22;2922;53.482;10.006;2022-12-05T07:18:24;4.30;99.90
5792;DHT22;2922;53.482;10.006;2022-12-05T07:21:01;4.20;99.90
5792;DHT22;2922;53.482;10.006;2022-12-05T07:23:27;4.30;99.90
5792;DHT22;2922;53.482;10.006;2022-12-05T07:25:53;4.20;99.90
5792;DHT22;2922;53.482;10.006;2022-12-05T07:28:19;4.20;99.90
5792;DHT22;2922;53.482;10.006;2022-12-05T07:30:44;4.20;99.90
5792;DHT22;2922;53.482;10.006;2022-12-05T07:33:10;4.20;99.90
5792;DHT22;2922;53.482;10.006;2022-12-05T07:35:35;4.20;99.90
5792;DHT22;2922;53.482;10.006;2022-12-05T07:38:01;4.20;99.90
5792;DHT22;2922;53.482;10.006;2022-12-05T07:40:27;4.20;99.90
5792;DHT22;2922;53.482;10.006;2022-12-05T07:42:52;4.20;99.90
5792;DHT22;2922;53.482;10.006;2022-12-05T07:45:19;4.20;99.90
5792;DHT22;2922;53.482;10.006;2022-12-05T07:47:45;4.20;99.90
5792;DHT22;2922;53.482;10.006;2022-12-05T07:50:11;4.20;99.90
5792;DHT22;2922;53.482;10.006;2022-12-05T07:52:37;4.20;99.90
5792;DHT22;2922;53.482;10.006;2022-12-05T07:55:04;4.20;99.90
5792;DHT22;2922;53.482;10.006;2022-12-05T07:57:30;4.20;99.90
5792;DHT22;2922;53.482;10.006;2022-12-05T07:59:55;4.10;99.90
5792;DHT22;2922;53.482;10.006;2022-12-05T08:02:21;4.10;99.90
5792;DHT22;2922;53.482;10.006;2022-12-05T08:04:46;4.10;99.90
5792;DHT22;2922;53.482;10.006;2022-12-05T08:07:12;4.10;99.90
5792;DHT22;2922;53.482;10.006;2022-12-05T08:09:37;4.00;99.90
5792;DHT22;2922;53.482;10.006;2022-12-05T08:12:03;4.00;99.90
5792;DHT22;2922;53.482;10.006;2022-12-05T08:14:29;4.00;99.90
5792;DHT22;2922;53.482;10.006;2022-12-05T08:16:54;3.90;99.90
5792;DHT22;2922;53.482;10.006;2022-12-05T08:19:20;3.90;99.90
5792;DHT22;2922;53.482;10.006;2022-12-05T08:21:45;3.90;99.90
5792;DHT22;2922;53.482;10.006;2022-12-05T08:24:12;3.90;99.90
5792;DHT22;2922;53.482;10.006;2022-12-05T08:26:38;3.90;99.90
5792;DHT22;2922;53.482;10.006;2022-12-05T08:29:10;3.80;99.90
5792;DHT22;2922;53.482;10.006;2022-12-05T08:31:42;3.80;99.90
5792;DHT22;2922;53.482;10.006;2022-12-05T08:34:10;3.80;99.90
5792;DHT22;2922;53.482;10.006;2022-12-05T08:36:36;3.80;99.90
5792;DHT22;2922;53.482;10.006;2022-12-05T08:39:04;3.80;99.90
5792;DHT22;2922;53.482;10.006;2022-12-05T08:41:30;3.70;99.90
5792;DHT22;2922;53.482;10.006;2022-12-05T08:43:59;3.70;99.90
5792;DHT22;2922;53.482;10.006;2022-12-05T08:46:27;3.70;99.90
5792;DHT22;2922;53.482;10.006;2022-12-05T08:48:53;3.60;99.90
5792;DHT22;2922;53.482;10.006;2022-12-05T08:51:18;3.60;99.90
5792;DHT22;2922;53.482;10.006;2022-12-05T08:53:44;3.60;99.90
5792;DHT22;2922;53.482;10.006;2022-12-05T08:56:10;3.60;99.90
5792;DHT22;2922;53.482;10.006;2022-12-05T08:58:36;3.60;99.90
5792;DHT22;2922;53.482;10.006;2022-12-05T09:01:07;3.60;99.90
5792;DHT22;2922;53.482;10.006;2022-12-05T09:03:33;3.60;99.90
5792;DHT22;2922;53.482;10.006;2022-12-05T09:08:35;3.60;99.90
5792;DHT22;2922;53.482;10.006;2022-12-05T09:11:12;3.60;99.90
5792;DHT22;2922;53.482;10.006;2022-12-05T09:13:38;3.60;99.90
5792;DHT22;2922;53.482;10.006;2022-12-05T09:16:05;3.60;99.90
5792;DHT22;2922;53.482;10.006;2022-12-05T09:18:31;3.60;99.90
5792;DHT22;2922;53.482;10.006;2022-12-05T09:20:56;3.60;99.90
5792;DHT22;2922;53.482;10.006;2022-12-05T09:23:22;3.60;99.90
5792;DHT22;2922;53.482;10.006;2022-12-05T09:25:54;3.60;99.90
5792;DHT22;2922;53.482;10.006;2022-12-05T09:28:22;3.60;99.90
5792;DHT22;2922;53.482;10.006;2022-12-05T09:30:59;3.60;99.90
5792;DHT22;2922;53.482;10.006;2022-12-05T09:33:27;3.60;99.90
5792;DHT22;2922;53.482;10.006;2022-12-05T09:35:52;3.60;99.90
5792;DHT22;2922;53.482;10.006;2022-12-05T09:38:18;3.60;99.90
5792;DHT22;2922;53.482;10.006;2022-12-05T09:40:44;3.60;99.90
5792;DHT22;2922;53.482;10.006;2022-12-05T09:43:25;3.60;99.90
5792;DHT22;2922;53.482;10.006;2022-12-05T09:48:50;3.60;99.90
5792;DHT22;2922;53.482;10.006;2022-12-05T09:51:16;3.60;99.90
5792;DHT22;2922;53.482;10.006;2022-12-05T09:53:42;3.60;99.90
5792;DHT22;2922;53.482;10.006;2022-12-05T09:58:48;3.60;99.90
5792;DHT22;2922;53.482;10.006;2022-12-05T10:07:03;3.60;99.90
5792;DHT22;2922;53.482;10.006;2022-12-05T10:09:43;3.70;99.90
5792;DHT22;2922;53.482;10.006;2022-12-05T10:18:01;3.70;99.90
5792;DHT22;2922;53.482;10.006;2022-12-05T10:20:35;3.70;99.90
5792;DHT22;2922;53.482;10.006;2022-12-05T10:23:11;3.70;99.90
5792;DHT22;2922;53.482;10.006;2022-12-05T10:25:40;3.80;99.90
5792;DHT22;2922;53.482;10.006;2022-12-05T10:28:14;3.70;99.90
5792;DHT22;2922;53.482;10.006;2022-12-05T10:30:42;3.80;99.90
5792;DHT22;2922;53.482;10.006;2022-12-05T10:33:38;3.70;99.90
5792;DHT22;2922;53.482;10.006;2022-12-05T10:36:12;3.80;99.90
5792;DHT22;2922;53.482;10.006;2022-12-05T10:38:39;3.80;99.90
5792;DHT22;2922;53.482;10.006;2022-12-05T10:41:13;3.80;99.90
5792;DHT22;2922;53.482;10.006;2022-12-05T10:43:41;3.80;99.90
5792;DHT22;2922;53.482;10.006;2022-12-05T10:46:09;3.80;99.90
5792;DHT22;2922;53.482;10.006;2022-12-05T10:48:37;3.80;99.90
5792;DHT22;2922;53.482;10.006;2022-12-05T10:51:04;3.80;99.90
5792;DHT22;2922;53.482;10.006;2022-12-05T10:53:44;3.80;99.90
5792;DHT22;2922;53.482;10.006;2022-12-05T10:56:39;3.90;99.90
5792;DHT22;2922;53.482;10.006;2022-12-05T10:59:08;3.90;99.90
5792;DHT22;2922;53.482;10.006;2022-12-05T11:01:35;3.90;99.90
5792;DHT22;2922;53.482;10.006;2022-12-05T11:06:57;3.90;99.90
5792;DHT22;2922;53.482;10.006;2022-12-05T11:09:30;3.90;99.90
5792;DHT22;2922;53.482;10.006;2022-12-05T11:12:18;3.90;99.90
5792;DHT22;2922;53.482;10.006;2022-12-05T11:17:51;3.90;99.90
5792;DHT22;2922;53.482;10.006;2022-12-05T11:22:47;3.80;99.90
5792;DHT22;2922;53.482;10.006;2022-12-05T11:27:54;3.90;99.90
5792;DHT22;2922;53.482;10.006;2022-12-05T11:30:23;3.90;99.90
5792;DHT22;2922;53.482;10.006;2022-12-05T11:32:51;3.90;99.90
5792;DHT22;2922;53.482;10.006;2022-12-05T11:35:34;3.90;99.90
5792;DHT22;2922;53.482;10.006;2022-12-05T11:38:03;3.90;99.90
5792;DHT22;2922;53.482;10.006;2022-12-05T11:40:33;3.90;99.90
5792;DHT22;2922;53.482;10.006;2022-12-05T11:46:31;4.00;99.90
5792;DHT22;2922;53.482;10.006;2022-12-05T11:49:27;4.00;99.90
5792;DHT22;2922;53.482;10.006;2022-12-05T11:51:57;4.00;99.90
5792;DHT22;2922;53.482;10.006;2022-12-05T11:55:00;3.90;99.90
5792;DHT22;2922;53.482;10.006;2022-12-05T11:57:50;4.00;99.90
5792;DHT22;2922;53.482;10.006;2022-12-05T12:00:25;3.90;99.90
5792;DHT22;2922;53.482;10.006;2022-12-05T12:05:51;4.00;99.90
5792;DHT22;2922;53.482;10.006;2022-12-05T12:08:27;4.00;99.90
5792;DHT22;2922;53.482;10.006;2022-12-05T12:11:09;4.00;99.90
5792;DHT22;2922;53.482;10.006;2022-12-05T12:16:50;4.10;99.90
5792;DHT22;2922;53.482;10.006;2022-12-05T12:22:27;4.00;99.90
5792;DHT22;2922;53.482;10.006;2022-12-05T12:35:50;4.00;99.90
5792;DHT22;2922;53.482;10.006;2022-12-05T12:47:06;4.10;99.90
5792;DHT22;2922;53.482;10.006;2022-12-05T12:52:22;4.00;99.90
5792;DHT22;2922;53.482;10.006;2022-12-05T13:00:48;4.00;99.90
5792;DHT22;2922;53.482;10.006;2022-12-05T13:03:26;4.00;99.90
5792;DHT22;2922;53.482;10.006;2022-12-05T13:06:20;4.00;99.90
5792;DHT22;2922;53.482;10.006;2022-12-05T13:08:58;4.00;99.90
5792;DHT22;2922;53.482;10.006;2022-12-05T13:11:28;4.00;99.90
5792;DHT22;2922;53.482;10.006;2022-12-05T13:14:00;4.10;99.90
5792;DHT22;2922;53.482;10.006;2022-12-05T13:16:32;4.00;99.90
5792;DHT22;2922;53.482;10.006;2022-12-05T13:18:59;4.00;99.90
5792;DHT22;2922;53.482;10.006;2022-12-05T13:21:26;4.00;99.90
5792;DHT22;2922;53.482;10.006;2022-12-05T13:23:56;4.00;99.90
5792;DHT22;2922;53.482;10.006;2022-12-05T13:26:31;4.00;99.90
5792;DHT22;2922;53.482;10.006;2022-12-05T13:29:00;4.00;99.90
5792;DHT22;2922;53.482;10.006;2022-12-05T13:31:42;4.00;99.90
5792;DHT22;2922;53.482;10.006;2022-12-05T13:36:56;4.00;99.90
5792;DHT22;2922;53.482;10.006;2022-12-05T13:39:41;4.00;99.90
5792;DHT22;2922;53.482;10.006;2022-12-05T13:42:32;3.90;99.90
5792;DHT22;2922;53.482;10.006;2022-12-05T13:52:42;3.90;99.90
5792;DHT22;2922;53.482;10.006;2022-12-05T13:55:38;3.90;99.90
5792;DHT22;2922;53.482;10.006;2022-12-05T13:59:01;3.90;99.90
5792;DHT22;2922;53.482;10.006;2022-12-05T14:03:59;3.90;99.90
5792;DHT22;2922;53.482;10.006;2022-12-05T14:09:03;3.90;99.90
5792;DHT22;2922;53.482;10.006;2022-12-05T14:11:37;3.90;99.90
5792;DHT22;2922;53.482;10.006;2022-12-05T14:14:02;3.90;99.90
5792;DHT22;2922;53.482;10.006;2022-12-05T14:21:36;3.80;99.90
5792;DHT22;2922;53.482;10.006;2022-12-05T14:27:06;3.80;99.90
5792;DHT22;2922;53.482;10.006;2022-12-05T14:30:04;3.80;99.90
5792;DHT22;2922;53.482;10.006;2022-12-05T14:32:37;3.80;99.90
5792;DHT22;2922;53.482;10.006;2022-12-05T14:38:05;3.80;99.90
5792;DHT22;2922;53.482;10.006;2022-12-05T14:40:39;3.80;99.90
5792;DHT22;2922;53.482;10.006;2022-12-05T14:53:13;3.70;99.90
5792;DHT22;2922;53.482;10.006;2022-12-05T15:00:59;3.70;99.90
5792;DHT22;2922;53.482;10.006;2022-12-05T15:03:37;3.70;99.90
5792;DHT22;2922;53.482;10.006;2022-12-05T15:06:09;3.70;99.90
5792;DHT22;2922;53.482;10.006;2022-12-05T15:08:48;3.60;99.90
5792;DHT22;2922;53.482;10.006;2022-12-05T15:11:21;3.60;99.90
5792;DHT22;2922;53.482;10.006;2022-12-05T15:13:59;3.60;99.90
5792;DHT22;2922;53.482;10.006;2022-12-05T15:16:26;3.60;99.90
5792;DHT22;2922;53.482;10.006;2022-12-05T15:18:58;3.60;99.90
5792;DHT22;2922;53.482;10.006;2022-12-05T15:21:43;3.60;99.90
5792;DHT22;2922;53.482;10.006;2022-12-05T15:24:18;3.60;99.90
5792;DHT22;2922;53.482;10.006;2022-12-05T15:31:46;3.60;99.90
5792;DHT22;2922;53.482;10.006;2022-12-05T15:34:35;3.50;99.90
5792;DHT22;2922;53.482;10.006;2022-12-05T15:39:54;3.60;99.90
5792;DHT22;2922;53.482;10.006;2022-12-05T15:42:34;3.60;99.90
5792;DHT22;2922;53.482;10.006;2022-12-05T15:45:22;3.50;99.90
5792;DHT22;2922;53.482;10.006;2022-12-05T15:48:10;3.50;99.90
5792;DHT22;2922;53.482;10.006;2022-12-05T15:50:38;3.50;99.90
5792;DHT22;2922;53.482;10.006;2022-12-05T15:58:42;3.50;99.90
5792;DHT22;2922;53.482;10.006;2022-12-05T16:01:20;3.40;99.90
5792;DHT22;2922;53.482;10.006;2022-12-05T16:06:31;3.40;99.90
5792;DHT22;2922;53.482;10.006;2022-12-05T16:08:59;3.40;99.90
5792;DHT22;2922;53.482;10.006;2022-12-05T16:11:25;3.40;99.90
5792;DHT22;2922;53.482;10.006;2022-12-05T16:13:55;3.40;99.90
5792;DHT22;2922;53.482;10.006;2022-12-05T16:16:24;3.40;99.90
5792;DHT22;2922;53.482;10.006;2022-12-05T16:18:56;3.40;99.90
5792;DHT22;2922;53.482;10.006;2022-12-05T16:21:37;3.30;99.90
5792;DHT22;2922;53.482;10.006;2022-12-05T16:24:07;3.40;99.90
5792;DHT22;2922;53.482;10.006;2022-12-05T16:26:38;3.40;99.90
5792;DHT22;2922;53.482;10.006;2022-12-05T16:29:04;3.30;99.90
5792;DHT22;2922;53.482;10.006;2022-12-05T16:31:31;3.30;99.90
5792;DHT22;2922;53.482;10.006;2022-12-05T16:34:03;3.30;99.90
5792;DHT22;2922;53.482;10.006;2022-12-05T16:36:30;3.30;99.90
5792;DHT22;2922;53.482;10.006;2022-12-05T16:39:05;3.30;99.90
5792;DHT22;2922;53.482;10.006;2022-12-05T16:41:36;3.30;99.90
5792;DHT22;2922;53.482;10.006;2022-12-05T16:44:03;3.30;99.90
5792;DHT22;2922;53.482;10.006;2022-12-05T16:51:58;3.30;99.90
5792;DHT22;2922;53.482;10.006;2022-12-05T16:54:24;3.30;99.90
5792;DHT22;2922;53.482;10.006;2022-12-05T16:56:50;3.30;99.90
5792;DHT22;2922;53.482;10.006;2022-12-05T16:59:31;3.30;99.90
5792;DHT22;2922;53.482;10.006;2022-12-05T17:01:57;3.30;99.90
5792;DHT22;2922;53.482;10.006;2022-12-05T17:24:34;3.20;99.90
5792;DHT22;2922;53.482;10.006;2022-12-05T17:27:00;3.20;99.90
5792;DHT22;2922;53.482;10.006;2022-12-05T17:29:25;3.20;99.90
5792;DHT22;2922;53.482;10.006;2022-12-05T17:31:51;3.20;99.90
5792;DHT22;2922;53.482;10.006;2022-12-05T17:34:17;3.20;99.90
5792;DHT22;2922;53.482;10.006;2022-12-05T17:36:43;3.10;99.90
5792;DHT22;2922;53.482;10.006;2022-12-05T17:39:09;3.10;99.90
5792;DHT22;2922;53.482;10.006;2022-12-05T17:41:35;3.20;99.90
5792;DHT22;2922;53.482;10.006;2022-12-05T17:44:02;3.20;99.90
5792;DHT22;2922;53.482;10.006;2022-12-05T17:46:27;3.20;99.90
5792;DHT22;2922;53.482;10.006;2022-12-05T17:48:53;3.20;99.90
5792;DHT22;2922;53.482;10.006;2022-12-05T17:51:19;3.20;99.90
5792;DHT22;2922;53.482;10.006;2022-12-05T17:53:45;3.20;99.90
5792;DHT22;2922;53.482;10.006;2022-12-05T17:56:12;3.20;99.90
5792;DHT22;2922;53.482;10.006;2022-12-05T17:58:37;3.10;99.90
5792;DHT22;2922;53.482;10.006;2022-12-05T18:01:03;3.20;99.90
5792;DHT22;2922;53.482;10.006;2022-12-05T18:03:29;3.20;99.90
5792;DHT22;2922;53.482;10.006;2022-12-05T18:05:54;3.20;99.90
5792;DHT22;2922;53.482;10.006;2022-12-05T18:08:20;3.20;99.90
5792;DHT22;2922;53.482;10.006;2022-12-05T18:10:47;3.10;99.90
5792;DHT22;2922;53.482;10.006;2022-12-05T18:13:13;3.20;99.90
5792;DHT22;2922;53.482;10.006;2022-12-05T18:15:40;3.20;99.90
5792;DHT22;2922;53.482;10.006;2022-12-05T18:18:06;3.20;99.90
5792;DHT22;2922;53.482;10.006;2022-12-05T18:20:33;3.20;99.90
5792;DHT22;2922;53.482;10.006;2022-12-05T18:22:59;3.20;99.90
5792;DHT22;2922;53.482;10.006;2022-12-05T18:25:27;3.20;99.90
5792;DHT22;2922;53.482;10.006;2022-12-05T18:27:52;3.20;99.90
5792;DHT22;2922;53.482;10.006;2022-12-05T18:30:18;3.20;99.90
5792;DHT22;2922;53.482;10.006;2022-12-05T18:32:43;3.20;99.90
5792;DHT22;2922;53.482;10.006;2022-12-05T18:35:09;3.10;99.90
5792;DHT22;2922;53.482;10.006;2022-12-05T18:37:36;3.10;99.90
5792;DHT22;2922;53.482;10.006;2022-12-05T18:40:05;3.10;99.90
5792;DHT22;2922;53.482;10.006;2022-12-05T18:42:32;3.20;99.90
5792;DHT22;2922;53.482;10.006;2022-12-05T18:44:57;3.20;99.90
5792;DHT22;2922;53.482;10.006;2022-12-05T18:47:23;3.10;99.90
5792;DHT22;2922;53.482;10.006;2022-12-05T18:49:49;3.10;99.90
5792;DHT22;2922;53.482;10.006;2022-12-05T18:52:15;3.10;99.90
5792;DHT22;2922;53.482;10.006;2022-12-05T18:54:41;3.10;99.90
5792;DHT22;2922;53.482;10.006;2022-12-05T18:57:07;3.00;99.90
5792;DHT22;2922;53.482;10.006;2022-12-05T18:59:32;3.00;99.90
5792;DHT22;2922;53.482;10.006;2022-12-05T19:01:58;3.00;99.90
5792;DHT22;2922;53.482;10.006;2022-12-05T19:04:25;3.00;99.90
5792;DHT22;2922;53.482;10.006;2022-12-05T19:06:55;3.00;99.90
5792;DHT22;2922;53.482;10.006;2022-12-05T19:09:24;2.90;99.90
5792;DHT22;2922;53.482;10.006;2022-12-05T19:11:51;2.90;99.90
5792;DHT22;2922;53.482;10.006;2022-12-05T19:14:25;3.00;99.90
5792;DHT22;2922;53.482;10.006;2022-12-05T19:16:54;2.90;99.90
5792;DHT22;2922;53.482;10.006;2022-12-05T19:19:20;3.00;99.90
5792;DHT22;2922;53.482;10.006;2022-12-05T19:21:46;3.00;99.90
5792;DHT22;2922;53.482;10.006;2022-12-05T19:24:14;2.90;99.90
5792;DHT22;2922;53.482;10.006;2022-12-05T19:26:40;2.90;99.90
5792;DHT22;2922;53.482;10.006;2022-12-05T19:29:09;2.90;99.90